sensor_id;sensor_type;location;lat;lon;timestamp;temperature;humidity
24408;DHT22;12542;50.924;4.516;2024-02-26T00:01:27;7.40;99.90
24408;DHT22;12542;50.924;4.516;2024-02-26T00:03:53;7.40;99.90
24408;DHT22;12542;50.924;4.516;2024-02-26T00:06:20;7.40;99.90
24408;DHT22;12542;50.924;4.516;2024-02-26T00:08:46;7.40;99.90
24408;DHT22;12542;50.924;4.516;2024-02-26T00:11:12;7.30;99.90
24408;DHT22;12542;50.924;4.516;2024-02-26T00:13:37;7.20;99.90
24408;DHT22;12542;50.924;4.516;2024-02-26T00:16:04;7.10;99.90
24408;DHT22;12542;50.924;4.516;2024-02-26T00:18:30;7.20;99.90
24408;DHT22;12542;50.924;4.516;2024-02-26T00:20:55;7.20;99.90
24408;DHT22;12542;50.924;4.516;2024-02-26T00:23:23;7.30;99.90
24408;DHT22;12542;50.924;4.516;2024-02-26T00:25:49;7.30;99.90
24408;DHT22;12542;50.924;4.516;2024-02-26T00:28:15;7.30;99.90
24408;DHT22;12542;50.924;4.516;2024-02-26T00:30:41;7.30;99.90
24408;DHT22;12542;50.924;4.516;2024-02-26T00:33:06;7.20;99.90
24408;DHT22;12542;50.924;4.516;2024-02-26T00:35:32;7.20;99.90
24408;DHT22;12542;50.924;4.516;2024-02-26T00:37:58;7.20;99.90
24408;DHT22;12542;50.924;4.516;2024-02-26T00:40:24;7.20;99.90
24408;DHT22;12542;50.924;4.516;2024-02-26T00:42:49;7.20;99.90
24408;DHT22;12542;50.924;4.516;2024-02-26T00:45:15;7.20;99.90
24408;DHT22;12542;50.924;4.516;2024-02-26T00:47:42;7.20;99.90
24408;DHT22;12542;50.924;4.516;2024-02-26T00:50:08;7.30;99.90
24408;DHT22;12542;50.924;4.516;2024-02-26T00:52:34;7.20;99.90
24408;DHT22;12542;50.924;4.516;2024-02-26T00:55:00;7.20;99.90
24408;DHT22;12542;50.924;4.516;2024-02-26T00:57:25;7.00;99.90
24408;DHT22;12542;50.924;4.516;2024-02-26T00:59:51;6.90;99.90
24408;DHT22;12542;50.924;4.516;2024-02-26T01:02:17;7.10;99.90
24408;DHT22;12542;50.924;4.516;2024-02-26T01:04:42;7.10;99.90
24408;DHT22;12542;50.924;4.516;2024-02-26T01:07:09;7.20;99.90
24408;DHT22;12542;50.924;4.516;2024-02-26T01:09:34;7.20;99.90
24408;DHT22;12542;50.924;4.516;2024-02-26T01:12:00;7.00;99.90
24408;DHT22;12542;50.924;4.516;2024-02-26T01:14:28;6.90;99.90
24408;DHT22;12542;50.924;4.516;2024-02-26T01:16:55;6.90;99.90
24408;DHT22;12542;50.924;4.516;2024-02-26T01:19:21;6.90;99.90
24408;DHT22;12542;50.924;4.516;2024-02-26T01:21:47;7.10;99.90
24408;DHT22;12542;50.924;4.516;2024-02-26T01:24:15;7.00;99.90
24408;DHT22;12542;50.924;4.516;2024-02-26T01:26:42;7.00;99.90
24408;DHT22;12542;50.924;4.516;2024-02-26T01:29:08;7.10;99.90
24408;DHT22;12542;50.924;4.516;2024-02-26T01:31:34;6.90;99.90
24408;DHT22;12542;50.924;4.516;2024-02-26T01:34:01;6.80;99.90
24408;DHT22;12542;50.924;4.516;2024-02-26T01:36:27;6.90;99.90
24408;DHT22;12542;50.924;4.516;2024-02-26T01:38:52;6.90;99.90
24408;DHT22;12542;50.924;4.516;2024-02-26T01:41:18;6.80;99.90
24408;DHT22;12542;50.924;4.516;2024-02-26T01:43:44;6.90;99.90
24408;DHT22;12542;50.924;4.516;2024-02-26T01:46:12;6.80;99.90
24408;DHT22;12542;50.924;4.516;2024-02-26T01:48:46;6.80;99.90
24408;DHT22;12542;50.924;4.516;2024-02-26T01:51:14;6.80;99.90
24408;DHT22;12542;50.924;4.516;2024-02-26T01:53:41;6.80;99.90
24408;DHT22;12542;50.924;4.516;2024-02-26T01:56:07;6.80;99.90
24408;DHT22;12542;50.924;4.516;2024-02-26T01:58:34;6.80;99.90
24408;DHT22;12542;50.924;4.516;2024-02-26T02:01:01;6.90;99.90
24408;DHT22;12542;50.924;4.516;2024-02-26T02:03:28;7.00;99.90
24408;DHT22;12542;50.924;4.516;2024-02-26T02:05:55;7.00;99.90
24408;DHT22;12542;50.924;4.516;2024-02-26T02:08:22;7.00;99.90
24408;DHT22;12542;50.924;4.516;2024-02-26T02:10:49;7.00;99.90
24408;DHT22;12542;50.924;4.516;2024-02-26T02:13:14;6.90;99.90
24408;DHT22;12542;50.924;4.516;2024-02-26T02:15:40;6.90;99.90
24408;DHT22;12542;50.924;4.516;2024-02-26T02:18:06;6.90;99.90
24408;DHT22;12542;50.924;4.516;2024-02-26T02:20:36;7.00;99.90
24408;DHT22;12542;50.924;4.516;2024-02-26T02:23:02;6.90;99.90
24408;DHT22;12542;50.924;4.516;2024-02-26T02:25:28;6.90;99.90
24408;DHT22;12542;50.924;4.516;2024-02-26T02:27:55;6.90;99.90
24408;DHT22;12542;50.924;4.516;2024-02-26T02:30:23;6.90;99.90
24408;DHT22;12542;50.924;4.516;2024-02-26T02:32:49;6.80;99.90
24408;DHT22;12542;50.924;4.516;2024-02-26T02:35:16;6.70;99.90
24408;DHT22;12542;50.924;4.516;2024-02-26T02:37:41;6.70;99.90
24408;DHT22;12542;50.924;4.516;2024-02-26T02:40:07;6.70;99.90
24408;DHT22;12542;50.924;4.516;2024-02-26T02:42:33;6.70;99.90
24408;DHT22;12542;50.924;4.516;2024-02-26T02:44:59;6.70;99.90
24408;DHT22;12542;50.924;4.516;2024-02-26T02:47:24;6.80;99.90
24408;DHT22;12542;50.924;4.516;2024-02-26T02:49:50;6.70;99.90
24408;DHT22;12542;50.924;4.516;2024-02-26T02:52:16;6.70;99.90
24408;DHT22;12542;50.924;4.516;2024-02-26T02:54:41;6.70;99.90
24408;DHT22;12542;50.924;4.516;2024-02-26T02:57:09;6.60;99.90
24408;DHT22;12542;50.924;4.516;2024-02-26T02:59:35;6.70;99.90
24408;DHT22;12542;50.924;4.516;2024-02-26T03:02:01;6.70;99.90
24408;DHT22;12542;50.924;4.516;2024-02-26T03:04:27;6.70;99.90
24408;DHT22;12542;50.924;4.516;2024-02-26T03:06:54;6.60;99.90
24408;DHT22;12542;50.924;4.516;2024-02-26T03:09:20;6.70;99.90
24408;DHT22;12542;50.924;4.516;2024-02-26T03:11:46;6.70;99.90
24408;DHT22;12542;50.924;4.516;2024-02-26T03:14:12;6.60;99.90
24408;DHT22;12542;50.924;4.516;2024-02-26T03:16:37;6.60;99.90
24408;DHT22;12542;50.924;4.516;2024-02-26T03:19:03;6.60;99.90
24408;DHT22;12542;50.924;4.516;2024-02-26T03:21:29;6.70;99.90
24408;DHT22;12542;50.924;4.516;2024-02-26T03:23:55;6.70;99.90
24408;DHT22;12542;50.924;4.516;2024-02-26T03:26:23;6.60;99.90
24408;DHT22;12542;50.924;4.516;2024-02-26T03:28:49;6.70;99.90
24408;DHT22;12542;50.924;4.516;2024-02-26T03:31:14;6.60;99.90
24408;DHT22;12542;50.924;4.516;2024-02-26T03:33:40;6.60;99.90
24408;DHT22;12542;50.924;4.516;2024-02-26T03:36:06;6.60;99.90
24408;DHT22;12542;50.924;4.516;2024-02-26T03:38:33;6.60;99.90
24408;DHT22;12542;50.924;4.516;2024-02-26T03:40:58;6.60;99.90
24408;DHT22;12542;50.924;4.516;2024-02-26T03:43:24;6.70;99.90
24408;DHT22;12542;50.924;4.516;2024-02-26T03:45:50;6.60;99.90
24408;DHT22;12542;50.924;4.516;2024-02-26T03:48:15;6.50;99.90
24408;DHT22;12542;50.924;4.516;2024-02-26T03:50:41;6.50;99.90
24408;DHT22;12542;50.924;4.516;2024-02-26T03:53:07;6.60;99.90
24408;DHT22;12542;50.924;4.516;2024-02-26T03:55:34;6.50;99.90
24408;DHT22;12542;50.924;4.516;2024-02-26T03:58:00;6.60;99.90
24408;DHT22;12542;50.924;4.516;2024-02-26T04:00:26;6.60;99.90
24408;DHT22;12542;50.924;4.516;2024-02-26T04:02:54;6.50;99.90
24408;DHT22;12542;50.924;4.516;2024-02-26T04:05:20;6.50;99.90
24408;DHT22;12542;50.924;4.516;2024-02-26T04:07:48;6.50;99.90
24408;DHT22;12542;50.924;4.516;2024-02-26T04:10:13;6.60;99.90
24408;DHT22;12542;50.924;4.516;2024-02-26T04:12:40;6.60;99.90
24408;DHT22;12542;50.924;4.516;2024-02-26T04:15:10;6.50;99.90
24408;DHT22;12542;50.924;4.516;2024-02-26T04:17:37;6.50;99.90
24408;DHT22;12542;50.924;4.516;2024-02-26T04:20:04;6.40;99.90
24408;DHT22;12542;50.924;4.516;2024-02-26T04:22:31;6.40;99.90
24408;DHT22;12542;50.924;4.516;2024-02-26T04:24:57;6.30;99.90
24408;DHT22;12542;50.924;4.516;2024-02-26T04:27:23;6.30;99.90
24408;DHT22;12542;50.924;4.516;2024-02-26T04:29:48;6.30;99.90
24408;DHT22;12542;50.924;4.516;2024-02-26T04:32:14;6.40;99.90
24408;DHT22;12542;50.924;4.516;2024-02-26T04:34:39;6.50;99.90
24408;DHT22;12542;50.924;4.516;2024-02-26T04:37:05;6.50;99.90
24408;DHT22;12542;50.924;4.516;2024-02-26T04:39:31;6.50;99.90
24408;DHT22;12542;50.924;4.516;2024-02-26T04:41:57;6.50;99.90
24408;DHT22;12542;50.924;4.516;2024-02-26T04:44:22;6.40;99.90
24408;DHT22;12542;50.924;4.516;2024-02-26T04:46:50;6.40;99.90
24408;DHT22;12542;50.924;4.516;2024-02-26T04:49:16;6.40;99.90
24408;DHT22;12542;50.924;4.516;2024-02-26T04:51:41;6.40;99.90
24408;DHT22;12542;50.924;4.516;2024-02-26T04:54:07;6.40;99.90
24408;DHT22;12542;50.924;4.516;2024-02-26T04:56:35;6.60;99.90
24408;DHT22;12542;50.924;4.516;2024-02-26T04:59:01;6.50;99.90
24408;DHT22;12542;50.924;4.516;2024-02-26T05:01:26;6.50;99.90
24408;DHT22;12542;50.924;4.516;2024-02-26T05:03:54;6.40;99.90
24408;DHT22;12542;50.924;4.516;2024-02-26T05:06:20;6.30;99.90
24408;DHT22;12542;50.924;4.516;2024-02-26T05:08:45;6.40;99.90
24408;DHT22;12542;50.924;4.516;2024-02-26T05:11:11;6.40;99.90
24408;DHT22;12542;50.924;4.516;2024-02-26T05:13:37;6.40;99.90
24408;DHT22;12542;50.924;4.516;2024-02-26T05:16:02;6.50;99.90
24408;DHT22;12542;50.924;4.516;2024-02-26T05:18:28;6.50;99.90
24408;DHT22;12542;50.924;4.516;2024-02-26T05:20:54;6.50;99.90
24408;DHT22;12542;50.924;4.516;2024-02-26T05:23:19;6.70;99.90
24408;DHT22;12542;50.924;4.516;2024-02-26T05:25:45;6.70;99.90
24408;DHT22;12542;50.924;4.516;2024-02-26T05:28:12;6.70;99.90
24408;DHT22;12542;50.924;4.516;2024-02-26T05:30:38;6.70;99.90
24408;DHT22;12542;50.924;4.516;2024-02-26T05:33:05;6.70;99.90
24408;DHT22;12542;50.924;4.516;2024-02-26T05:35:31;6.70;99.90
24408;DHT22;12542;50.924;4.516;2024-02-26T05:37:57;6.70;99.90
24408;DHT22;12542;50.924;4.516;2024-02-26T05:40:22;6.80;99.90
24408;DHT22;12542;50.924;4.516;2024-02-26T05:42:48;6.60;99.90
24408;DHT22;12542;50.924;4.516;2024-02-26T05:45:14;6.40;99.90
24408;DHT22;12542;50.924;4.516;2024-02-26T05:47:40;6.40;99.90
24408;DHT22;12542;50.924;4.516;2024-02-26T05:50:11;6.50;99.90
24408;DHT22;12542;50.924;4.516;2024-02-26T05:52:37;6.50;99.90
24408;DHT22;12542;50.924;4.516;2024-02-26T05:55:06;6.50;99.90
24408;DHT22;12542;50.924;4.516;2024-02-26T05:57:33;6.60;99.90
24408;DHT22;12542;50.924;4.516;2024-02-26T05:59:59;6.60;99.90
24408;DHT22;12542;50.924;4.516;2024-02-26T06:02:31;6.60;99.90
24408;DHT22;12542;50.924;4.516;2024-02-26T06:04:57;6.50;99.90
24408;DHT22;12542;50.924;4.516;2024-02-26T06:07:23;6.50;99.90
24408;DHT22;12542;50.924;4.516;2024-02-26T06:09:49;6.60;99.90
24408;DHT22;12542;50.924;4.516;2024-02-26T06:12:15;6.60;99.90
24408;DHT22;12542;50.924;4.516;2024-02-26T06:14:42;6.60;99.90
24408;DHT22;12542;50.924;4.516;2024-02-26T06:17:08;6.50;99.90
24408;DHT22;12542;50.924;4.516;2024-02-26T06:19:34;6.70;99.90
24408;DHT22;12542;50.924;4.516;2024-02-26T06:21:59;6.60;99.90
24408;DHT22;12542;50.924;4.516;2024-02-26T06:24:27;6.50;99.90
24408;DHT22;12542;50.924;4.516;2024-02-26T06:26:53;6.60;99.90
24408;DHT22;12542;50.924;4.516;2024-02-26T06:29:19;6.60;99.90
24408;DHT22;12542;50.924;4.516;2024-02-26T06:31:44;6.60;99.90
24408;DHT22;12542;50.924;4.516;2024-02-26T06:34:10;6.40;99.90
24408;DHT22;12542;50.924;4.516;2024-02-26T06:36:37;6.40;99.90
24408;DHT22;12542;50.924;4.516;2024-02-26T06:39:02;6.40;99.90
24408;DHT22;12542;50.924;4.516;2024-02-26T06:41:28;6.50;99.90
24408;DHT22;12542;50.924;4.516;2024-02-26T06:43:55;6.60;99.90
24408;DHT22;12542;50.924;4.516;2024-02-26T06:46:21;6.60;99.90
24408;DHT22;12542;50.924;4.516;2024-02-26T06:48:48;6.50;99.90
24408;DHT22;12542;50.924;4.516;2024-02-26T06:51:14;6.30;99.90
24408;DHT22;12542;50.924;4.516;2024-02-26T06:53:40;6.30;99.90
24408;DHT22;12542;50.924;4.516;2024-02-26T06:56:06;6.40;99.90
24408;DHT22;12542;50.924;4.516;2024-02-26T06:58:32;6.30;99.90
24408;DHT22;12542;50.924;4.516;2024-02-26T07:00:58;6.30;99.90
24408;DHT22;12542;50.924;4.516;2024-02-26T07:03:24;6.20;99.90
24408;DHT22;12542;50.924;4.516;2024-02-26T07:05:51;6.20;99.90
24408;DHT22;12542;50.924;4.516;2024-02-26T07:08:17;6.30;99.90
24408;DHT22;12542;50.924;4.516;2024-02-26T07:10:43;6.30;99.90
24408;DHT22;12542;50.924;4.516;2024-02-26T07:13:09;6.30;99.90
24408;DHT22;12542;50.924;4.516;2024-02-26T07:15:34;6.40;99.90
24408;DHT22;12542;50.924;4.516;2024-02-26T07:18:02;6.30;99.90
24408;DHT22;12542;50.924;4.516;2024-02-26T07:20:29;6.20;99.90
24408;DHT22;12542;50.924;4.516;2024-02-26T07:22:55;6.30;99.90
24408;DHT22;12542;50.924;4.516;2024-02-26T07:25:21;6.30;99.90
24408;DHT22;12542;50.924;4.516;2024-02-26T07:27:47;6.30;99.90
24408;DHT22;12542;50.924;4.516;2024-02-26T07:30:13;6.20;99.90
24408;DHT22;12542;50.924;4.516;2024-02-26T07:32:39;6.30;99.90
24408;DHT22;12542;50.924;4.516;2024-02-26T07:35:04;6.40;99.90
24408;DHT22;12542;50.924;4.516;2024-02-26T07:37:30;6.40;99.90
24408;DHT22;12542;50.924;4.516;2024-02-26T07:39:56;6.20;99.90
24408;DHT22;12542;50.924;4.516;2024-02-26T07:42:22;6.20;99.90
24408;DHT22;12542;50.924;4.516;2024-02-26T07:44:48;6.30;99.90
24408;DHT22;12542;50.924;4.516;2024-02-26T07:47:13;6.30;99.90
24408;DHT22;12542;50.924;4.516;2024-02-26T07:49:40;6.20;99.90
24408;DHT22;12542;50.924;4.516;2024-02-26T07:52:06;6.20;99.90
24408;DHT22;12542;50.924;4.516;2024-02-26T07:54:32;6.20;99.90
24408;DHT22;12542;50.924;4.516;2024-02-26T07:56:58;6.30;99.90
24408;DHT22;12542;50.924;4.516;2024-02-26T07:59:23;6.30;99.90
24408;DHT22;12542;50.924;4.516;2024-02-26T08:01:52;6.30;99.90
24408;DHT22;12542;50.924;4.516;2024-02-26T08:04:18;6.40;99.90
24408;DHT22;12542;50.924;4.516;2024-02-26T08:06:44;6.20;99.90
24408;DHT22;12542;50.924;4.516;2024-02-26T08:09:09;6.30;99.90
24408;DHT22;12542;50.924;4.516;2024-02-26T08:11:35;6.40;99.90
24408;DHT22;12542;50.924;4.516;2024-02-26T08:14:01;6.40;99.90
24408;DHT22;12542;50.924;4.516;2024-02-26T08:16:27;6.40;99.90
24408;DHT22;12542;50.924;4.516;2024-02-26T08:18:53;6.50;99.90
24408;DHT22;12542;50.924;4.516;2024-02-26T08:21:18;6.50;99.90
24408;DHT22;12542;50.924;4.516;2024-02-26T08:23:44;6.60;99.90
24408;DHT22;12542;50.924;4.516;2024-02-26T08:26:10;6.60;99.90
24408;DHT22;12542;50.924;4.516;2024-02-26T08:28:39;6.50;99.90
24408;DHT22;12542;50.924;4.516;2024-02-26T08:31:10;6.50;99.90
24408;DHT22;12542;50.924;4.516;2024-02-26T08:33:36;6.50;99.90
24408;DHT22;12542;50.924;4.516;2024-02-26T08:36:08;6.50;99.90
24408;DHT22;12542;50.924;4.516;2024-02-26T08:38:34;6.50;99.90
24408;DHT22;12542;50.924;4.516;2024-02-26T08:41:02;6.40;99.90
24408;DHT22;12542;50.924;4.516;2024-02-26T08:43:30;6.30;99.90
24408;DHT22;12542;50.924;4.516;2024-02-26T08:45:57;6.40;99.90
24408;DHT22;12542;50.924;4.516;2024-02-26T08:48:23;6.30;99.90
24408;DHT22;12542;50.924;4.516;2024-02-26T08:50:48;6.30;99.90
24408;DHT22;12542;50.924;4.516;2024-02-26T08:53:14;6.50;99.90
24408;DHT22;12542;50.924;4.516;2024-02-26T08:55:40;6.60;99.90
24408;DHT22;12542;50.924;4.516;2024-02-26T08:58:05;6.60;99.90
24408;DHT22;12542;50.924;4.516;2024-02-26T09:00:31;6.40;99.90
24408;DHT22;12542;50.924;4.516;2024-02-26T09:02:57;6.40;99.90
24408;DHT22;12542;50.924;4.516;2024-02-26T09:05:22;6.40;99.90
24408;DHT22;12542;50.924;4.516;2024-02-26T09:07:48;6.50;99.90
24408;DHT22;12542;50.924;4.516;2024-02-26T09:10:14;6.40;99.90
24408;DHT22;12542;50.924;4.516;2024-02-26T09:12:39;6.40;99.90
24408;DHT22;12542;50.924;4.516;2024-02-26T09:15:06;6.50;99.90
24408;DHT22;12542;50.924;4.516;2024-02-26T09:17:33;6.40;99.90
24408;DHT22;12542;50.924;4.516;2024-02-26T09:19:58;6.40;99.90
24408;DHT22;12542;50.924;4.516;2024-02-26T09:22:24;6.50;99.90
24408;DHT22;12542;50.924;4.516;2024-02-26T09:24:50;6.50;99.90
24408;DHT22;12542;50.924;4.516;2024-02-26T09:27:17;6.40;99.90
24408;DHT22;12542;50.924;4.516;2024-02-26T09:29:43;6.60;99.90
24408;DHT22;12542;50.924;4.516;2024-02-26T09:32:08;6.50;99.90
24408;DHT22;12542;50.924;4.516;2024-02-26T09:34:34;6.60;99.90
24408;DHT22;12542;50.924;4.516;2024-02-26T09:37:01;6.70;99.90
24408;DHT22;12542;50.924;4.516;2024-02-26T09:39:27;6.70;99.90
24408;DHT22;12542;50.924;4.516;2024-02-26T09:41:53;6.60;99.90
24408;DHT22;12542;50.924;4.516;2024-02-26T09:44:21;6.60;99.90
24408;DHT22;12542;50.924;4.516;2024-02-26T09:46:51;6.60;99.90
24408;DHT22;12542;50.924;4.516;2024-02-26T09:49:20;6.70;99.90
24408;DHT22;12542;50.924;4.516;2024-02-26T09:51:49;6.80;99.90
24408;DHT22;12542;50.924;4.516;2024-02-26T09:54:15;6.70;99.90
24408;DHT22;12542;50.924;4.516;2024-02-26T09:56:42;6.60;99.90
24408;DHT22;12542;50.924;4.516;2024-02-26T09:59:15;6.50;99.90
24408;DHT22;12542;50.924;4.516;2024-02-26T10:01:42;6.50;99.90
24408;DHT22;12542;50.924;4.516;2024-02-26T10:04:10;6.70;99.90
24408;DHT22;12542;50.924;4.516;2024-02-26T10:06:37;6.70;99.90
24408;DHT22;12542;50.924;4.516;2024-02-26T10:09:05;6.80;99.90
24408;DHT22;12542;50.924;4.516;2024-02-26T10:11:35;6.60;99.90
24408;DHT22;12542;50.924;4.516;2024-02-26T10:14:03;6.50;99.90
24408;DHT22;12542;50.924;4.516;2024-02-26T10:16:29;6.50;99.90
24408;DHT22;12542;50.924;4.516;2024-02-26T10:18:55;6.40;99.90
24408;DHT22;12542;50.924;4.516;2024-02-26T10:21:21;6.40;99.90
24408;DHT22;12542;50.924;4.516;2024-02-26T10:23:48;6.50;99.90
24408;DHT22;12542;50.924;4.516;2024-02-26T10:26:16;6.60;99.90
24408;DHT22;12542;50.924;4.516;2024-02-26T10:28:44;6.60;99.90
24408;DHT22;12542;50.924;4.516;2024-02-26T10:31:10;6.50;99.90
24408;DHT22;12542;50.924;4.516;2024-02-26T10:33:37;6.70;99.90
24408;DHT22;12542;50.924;4.516;2024-02-26T10:36:07;6.70;99.90
24408;DHT22;12542;50.924;4.516;2024-02-26T10:38:34;6.60;99.90
24408;DHT22;12542;50.924;4.516;2024-02-26T10:41:04;6.60;99.90
24408;DHT22;12542;50.924;4.516;2024-02-26T10:43:31;6.50;99.90
24408;DHT22;12542;50.924;4.516;2024-02-26T10:45:57;6.50;99.90
24408;DHT22;12542;50.924;4.516;2024-02-26T10:48:23;6.50;99.90
24408;DHT22;12542;50.924;4.516;2024-02-26T10:50:49;6.40;99.90
24408;DHT22;12542;50.924;4.516;2024-02-26T10:53:17;6.50;99.90
24408;DHT22;12542;50.924;4.516;2024-02-26T10:55:48;6.50;99.90
24408;DHT22;12542;50.924;4.516;2024-02-26T10:58:16;6.30;99.90
24408;DHT22;12542;50.924;4.516;2024-02-26T11:00:43;6.30;99.90
24408;DHT22;12542;50.924;4.516;2024-02-26T11:03:09;6.30;99.90
24408;DHT22;12542;50.924;4.516;2024-02-26T11:05:37;6.50;99.90
24408;DHT22;12542;50.924;4.516;2024-02-26T11:08:05;6.30;99.90
24408;DHT22;12542;50.924;4.516;2024-02-26T11:10:31;6.20;99.90
24408;DHT22;12542;50.924;4.516;2024-02-26T11:12:59;6.30;99.90
24408;DHT22;12542;50.924;4.516;2024-02-26T11:15:28;6.30;99.90
24408;DHT22;12542;50.924;4.516;2024-02-26T11:17:55;6.20;99.90
24408;DHT22;12542;50.924;4.516;2024-02-26T11:20:23;6.20;99.90
24408;DHT22;12542;50.924;4.516;2024-02-26T11:22:49;6.20;99.90
24408;DHT22;12542;50.924;4.516;2024-02-26T11:25:14;6.20;99.90
24408;DHT22;12542;50.924;4.516;2024-02-26T11:27:54;6.20;99.90
24408;DHT22;12542;50.924;4.516;2024-02-26T11:30:25;6.10;99.90
24408;DHT22;12542;50.924;4.516;2024-02-26T11:32:51;6.30;99.90
24408;DHT22;12542;50.924;4.516;2024-02-26T11:35:18;6.20;99.90
24408;DHT22;12542;50.924;4.516;2024-02-26T11:37:54;6.30;99.90
24408;DHT22;12542;50.924;4.516;2024-02-26T11:40:23;6.30;99.90
24408;DHT22;12542;50.924;4.516;2024-02-26T11:42:49;6.20;99.90
24408;DHT22;12542;50.924;4.516;2024-02-26T11:48:11;6.30;99.90
24408;DHT22;12542;50.924;4.516;2024-02-26T11:50:40;6.30;99.90
24408;DHT22;12542;50.924;4.516;2024-02-26T11:53:26;6.40;99.90
24408;DHT22;12542;50.924;4.516;2024-02-26T11:58:43;6.20;99.90
24408;DHT22;12542;50.924;4.516;2024-02-26T12:01:40;6.30;99.90
24408;DHT22;12542;50.924;4.516;2024-02-26T12:06:52;6.40;99.90
24408;DHT22;12542;50.924;4.516;2024-02-26T12:09:51;6.30;99.90
24408;DHT22;12542;50.924;4.516;2024-02-26T12:12:18;6.40;99.90
24408;DHT22;12542;50.924;4.516;2024-02-26T12:14:53;6.30;99.90
24408;DHT22;12542;50.924;4.516;2024-02-26T12:17:25;6.30;99.90
24408;DHT22;12542;50.924;4.516;2024-02-26T12:19:51;6.30;99.90
24408;DHT22;12542;50.924;4.516;2024-02-26T12:22:19;6.50;99.90
24408;DHT22;12542;50.924;4.516;2024-02-26T12:24:45;6.50;99.90
24408;DHT22;12542;50.924;4.516;2024-02-26T12:27:11;6.40;99.90
24408;DHT22;12542;50.924;4.516;2024-02-26T12:29:40;6.50;99.90
24408;DHT22;12542;50.924;4.516;2024-02-26T12:32:08;6.50;99.90
24408;DHT22;12542;50.924;4.516;2024-02-26T12:34:34;6.40;99.90
24408;DHT22;12542;50.924;4.516;2024-02-26T12:37:00;6.60;99.90
24408;DHT22;12542;50.924;4.516;2024-02-26T12:39:28;6.60;99.90
24408;DHT22;12542;50.924;4.516;2024-02-26T12:41:57;6.60;99.90
24408;DHT22;12542;50.924;4.516;2024-02-26T12:44:25;6.50;99.90
24408;DHT22;12542;50.924;4.516;2024-02-26T12:47:00;6.50;99.90
24408;DHT22;12542;50.924;4.516;2024-02-26T12:49:26;6.30;99.90
24408;DHT22;12542;50.924;4.516;2024-02-26T12:51:52;6.40;99.90
24408;DHT22;12542;50.924;4.516;2024-02-26T12:54:17;6.50;99.90
24408;DHT22;12542;50.924;4.516;2024-02-26T12:56:43;6.50;99.90
24408;DHT22;12542;50.924;4.516;2024-02-26T12:59:09;6.40;99.90
24408;DHT22;12542;50.924;4.516;2024-02-26T13:01:35;6.30;99.90
24408;DHT22;12542;50.924;4.516;2024-02-26T13:04:01;6.30;99.90
24408;DHT22;12542;50.924;4.516;2024-02-26T13:06:32;6.30;99.90
24408;DHT22;12542;50.924;4.516;2024-02-26T13:08:59;6.40;99.90
24408;DHT22;12542;50.924;4.516;2024-02-26T13:11:26;6.40;99.90
24408;DHT22;12542;50.924;4.516;2024-02-26T13:13:51;6.40;99.90
24408;DHT22;12542;50.924;4.516;2024-02-26T13:16:17;6.30;99.90
24408;DHT22;12542;50.924;4.516;2024-02-26T13:18:43;6.20;99.90
24408;DHT22;12542;50.924;4.516;2024-02-26T13:21:13;6.20;99.90
24408;DHT22;12542;50.924;4.516;2024-02-26T13:23:40;6.30;99.90
24408;DHT22;12542;50.924;4.516;2024-02-26T13:26:08;6.40;99.90
24408;DHT22;12542;50.924;4.516;2024-02-26T13:28:34;6.30;99.90
24408;DHT22;12542;50.924;4.516;2024-02-26T13:31:02;6.30;99.90
24408;DHT22;12542;50.924;4.516;2024-02-26T13:33:30;6.40;99.90
24408;DHT22;12542;50.924;4.516;2024-02-26T13:35:57;6.40;99.90
24408;DHT22;12542;50.924;4.516;2024-02-26T13:38:23;6.40;99.90
24408;DHT22;12542;50.924;4.516;2024-02-26T13:40:51;6.60;99.90
24408;DHT22;12542;50.924;4.516;2024-02-26T13:43:18;6.60;99.90
24408;DHT22;12542;50.924;4.516;2024-02-26T13:45:44;6.50;99.90
24408;DHT22;12542;50.924;4.516;2024-02-26T13:48:11;6.50;99.90
24408;DHT22;12542;50.924;4.516;2024-02-26T13:50:40;6.50;99.90
24408;DHT22;12542;50.924;4.516;2024-02-26T13:53:08;6.40;99.90
24408;DHT22;12542;50.924;4.516;2024-02-26T13:55:34;6.40;99.90
24408;DHT22;12542;50.924;4.516;2024-02-26T13:58:00;6.40;99.90
24408;DHT22;12542;50.924;4.516;2024-02-26T14:00:28;6.30;99.90
24408;DHT22;12542;50.924;4.516;2024-02-26T14:02:54;6.50;99.90
24408;DHT22;12542;50.924;4.516;2024-02-26T14:05:20;6.60;99.90
24408;DHT22;12542;50.924;4.516;2024-02-26T14:07:46;6.60;99.90
24408;DHT22;12542;50.924;4.516;2024-02-26T14:10:12;6.50;99.90
24408;DHT22;12542;50.924;4.516;2024-02-26T14:12:38;6.50;99.90
24408;DHT22;12542;50.924;4.516;2024-02-26T14:15:06;6.60;99.90
24408;DHT22;12542;50.924;4.516;2024-02-26T14:17:32;6.60;99.90
24408;DHT22;12542;50.924;4.516;2024-02-26T14:19:58;6.80;99.90
24408;DHT22;12542;50.924;4.516;2024-02-26T14:22:24;6.90;99.90
24408;DHT22;12542;50.924;4.516;2024-02-26T14:24:51;6.70;99.90
24408;DHT22;12542;50.924;4.516;2024-02-26T14:27:18;6.90;99.90
24408;DHT22;12542;50.924;4.516;2024-02-26T14:29:45;6.70;99.90
24408;DHT22;12542;50.924;4.516;2024-02-26T14:32:11;6.80;99.90
24408;DHT22;12542;50.924;4.516;2024-02-26T14:34:40;6.90;99.90
24408;DHT22;12542;50.924;4.516;2024-02-26T14:37:06;6.90;99.90
24408;DHT22;12542;50.924;4.516;2024-02-26T14:39:32;6.70;99.90
24408;DHT22;12542;50.924;4.516;2024-02-26T14:41:58;6.80;99.90
24408;DHT22;12542;50.924;4.516;2024-02-26T14:44:24;6.80;99.90
24408;DHT22;12542;50.924;4.516;2024-02-26T14:46:50;6.80;99.90
24408;DHT22;12542;50.924;4.516;2024-02-26T14:49:19;6.90;99.90
24408;DHT22;12542;50.924;4.516;2024-02-26T14:51:45;6.80;99.90
24408;DHT22;12542;50.924;4.516;2024-02-26T14:54:13;6.70;99.90
24408;DHT22;12542;50.924;4.516;2024-02-26T14:56:39;6.70;99.90
24408;DHT22;12542;50.924;4.516;2024-02-26T14:59:05;6.70;99.90
24408;DHT22;12542;50.924;4.516;2024-02-26T15:01:31;6.80;99.90
24408;DHT22;12542;50.924;4.516;2024-02-26T15:03:57;6.90;99.90
24408;DHT22;12542;50.924;4.516;2024-02-26T15:06:23;6.80;99.90
24408;DHT22;12542;50.924;4.516;2024-02-26T15:08:49;6.80;99.90
24408;DHT22;12542;50.924;4.516;2024-02-26T15:11:15;6.70;99.90
24408;DHT22;12542;50.924;4.516;2024-02-26T15:13:41;6.50;99.90
24408;DHT22;12542;50.924;4.516;2024-02-26T15:16:06;6.50;99.90
24408;DHT22;12542;50.924;4.516;2024-02-26T15:18:32;6.40;99.90
24408;DHT22;12542;50.924;4.516;2024-02-26T15:20:58;6.50;99.90
24408;DHT22;12542;50.924;4.516;2024-02-26T15:23:26;6.60;99.90
24408;DHT22;12542;50.924;4.516;2024-02-26T15:25:53;6.50;99.90
24408;DHT22;12542;50.924;4.516;2024-02-26T15:28:19;6.60;99.90
24408;DHT22;12542;50.924;4.516;2024-02-26T15:30:44;6.60;99.90
24408;DHT22;12542;50.924;4.516;2024-02-26T15:33:10;6.60;99.90
24408;DHT22;12542;50.924;4.516;2024-02-26T15:35:37;6.60;99.90
24408;DHT22;12542;50.924;4.516;2024-02-26T15:38:03;6.70;99.90
24408;DHT22;12542;50.924;4.516;2024-02-26T15:40:29;6.60;99.90
24408;DHT22;12542;50.924;4.516;2024-02-26T15:42:55;6.70;99.90
24408;DHT22;12542;50.924;4.516;2024-02-26T15:45:20;6.60;99.90
24408;DHT22;12542;50.924;4.516;2024-02-26T15:47:46;6.60;99.90
24408;DHT22;12542;50.924;4.516;2024-02-26T15:50:13;6.60;99.90